Time;durP1;ratioP1;P1;durP2;ratioP2;P2;SDS_P1;SDS_P2;PMS_P1;PMS_P2;Temp;Humidity;BMP_temperature;BMP_pressure;BME280_temperature;BME280_humidity;BME280_pressure;Samples;Min_cycle;Max_cycle;Signal;HPM_P1;HPM_P2
2024/01/28 00:00:15;;;;;;;23.35;11.40;;;;;;;;;;6243614;22;20095;-82
2024/01/28 00:02:43;;;;;;;24.48;12.35;;;;;;;;;;6246252;22;20022;-81
2024/01/28 00:05:13;;;;;;;19.83;10.90;;;;;;;;;;6245336;22;20012;-82
2024/01/28 00:07:40;;;;;;;25.95;12.38;;;;;;;;;;6245971;22;20027;-81
2024/01/28 00:10:08;;;;;;;20.88;13.10;;;;;;;;;;6269755;22;20016;-82
2024/01/28 00:12:35;;;;;;;25.50;12.35;;;;;;;;;;6244504;23;20020;-82
2024/01/28 00:15:02;;;;;;;21.00;12.57;;;;;;;;;;6246196;22;20074;-82
2024/01/28 00:17:29;;;;;;;22.35;9.88;;;;;;;;;;6245435;22;20334;-82
2024/01/28 00:19:55;;;;;;;26.27;10.27;;;;;;;;;;6245951;22;20329;-82
2024/01/28 00:22:23;;;;;;;18.45;10.70;;;;;;;;;;6245365;22;20086;-81
2024/01/28 00:24:50;;;;;;;20.40;10.77;;;;;;;;;;6244308;23;20016;-82
2024/01/28 00:27:17;;;;;;;21.58;11.30;;;;;;;;;;6245167;22;20437;-82
2024/01/28 00:29:44;;;;;;;20.08;12.18;;;;;;;;;;6269813;22;20046;-82
2024/01/28 00:32:10;;;;;;;22.30;11.25;;;;;;;;;;6245674;22;20437;-81
2024/01/28 00:34:37;;;;;;;19.38;10.00;;;;;;;;;;6246167;22;20039;-81
2024/01/28 00:37:04;;;;;;;18.38;10.35;;;;;;;;;;6243403;22;20012;-80
2024/01/28 00:39:31;;;;;;;19.42;9.88;;;;;;;;;;6244194;23;20020;-81
2024/01/28 00:41:58;;;;;;;19.38;10.98;;;;;;;;;;6243912;23;20020;-81
2024/01/28 00:44:25;;;;;;;21.95;10.65;;;;;;;;;;6243856;22;20028;-82
2024/01/28 00:46:54;;;;;;;17.50;9.90;;;;;;;;;;6246058;22;20024;-81
2024/01/28 00:49:23;;;;;;;22.75;10.13;;;;;;;;;;6245751;22;20018;-81
2024/01/28 00:51:50;;;;;;;19.98;11.23;;;;;;;;;;6271435;22;20016;-81
2024/01/28 00:54:17;;;;;;;23.83;10.40;;;;;;;;;;6244985;22;20091;-81
2024/01/28 00:56:44;;;;;;;22.98;11.40;;;;;;;;;;6247663;22;20669;-81
2024/01/28 00:59:11;;;;;;;18.50;10.98;;;;;;;;;;6248419;22;20337;-82
2024/01/28 01:01:37;;;;;;;24.63;10.55;;;;;;;;;;6273066;22;20095;-81
2024/01/28 01:04:04;;;;;;;20.70;10.98;;;;;;;;;;6260226;22;20047;-79
2024/01/28 01:06:31;;;;;;;22.55;11.32;;;;;;;;;;6264961;22;20012;-81
2024/01/28 01:08:59;;;;;;;22.80;12.52;;;;;;;;;;6257937;22;20532;-82
2024/01/28 01:11:26;;;;;;;29.58;11.98;;;;;;;;;;6247208;22;20043;-81
2024/01/28 01:13:52;;;;;;;24.38;11.00;;;;;;;;;;6247768;22;20016;-82
2024/01/28 01:16:19;;;;;;;21.60;11.15;;;;;;;;;;6246820;22;20020;-81
2024/01/28 01:18:46;;;;;;;27.20;10.82;;;;;;;;;;6247590;22;20020;-81
2024/01/28 01:21:13;;;;;;;23.38;10.70;;;;;;;;;;6247092;22;20008;-81
2024/01/28 01:23:40;;;;;;;27.48;12.18;;;;;;;;;;6247405;22;20079;-81
2024/01/28 01:26:06;;;;;;;22.20;11.35;;;;;;;;;;6246913;22;20008;-81
2024/01/28 01:28:33;;;;;;;24.88;11.65;;;;;;;;;;6247222;22;20019;-81
2024/01/28 01:31:02;;;;;;;32.17;11.52;;;;;;;;;;6247351;22;20018;-81
2024/01/28 01:33:29;;;;;;;;;;;;;;;;;;6247910;22;20063;-82
2024/01/28 01:35:56;;;;;;;22.48;11.82;;;;;;;;;;6245774;23;19966;-82
2024/01/28 01:38:23;;;;;;;22.23;12.02;;;;;;;;;;6246981;22;20027;-82
2024/01/28 01:40:50;;;;;;;26.60;11.80;;;;;;;;;;6247412;22;20016;-82
2024/01/28 01:43:16;;;;;;;34.05;11.00;;;;;;;;;;6269998;22;20016;-81
2024/01/28 01:45:43;;;;;;;25.48;10.85;;;;;;;;;;6246964;22;20074;-81
2024/01/28 01:48:13;;;;;;;23.05;11.35;;;;;;;;;;6246846;22;20016;-81
2024/01/28 01:50:41;;;;;;;29.58;12.60;;;;;;;;;;6247325;22;20023;-81
2024/01/28 01:53:09;;;;;;;30.00;13.97;;;;;;;;;;6246833;22;20026;-82
2024/01/28 01:55:39;;;;;;;27.95;12.52;;;;;;;;;;6271112;22;20012;-81
2024/01/28 01:58:07;;;;;;;33.05;13.88;;;;;;;;;;6246861;22;20012;-81
2024/01/28 02:00:34;;;;;;;26.88;12.98;;;;;;;;;;6247284;22;20110;-80
2024/01/28 02:03:01;;;;;;;33.63;13.45;;;;;;;;;;6247000;22;20035;-81
2024/01/28 02:05:29;;;;;;;26.83;12.32;;;;;;;;;;6245125;22;20071;-81
2024/01/28 02:07:56;;;;;;;28.55;13.13;;;;;;;;;;6247345;22;20071;-81
2024/01/28 02:10:23;;;;;;;26.70;11.88;;;;;;;;;;6244775;22;20087;-81
2024/01/28 02:12:50;;;;;;;28.80;12.40;;;;;;;;;;6247084;22;20460;-81
2024/01/28 02:15:17;;;;;;;28.58;12.77;;;;;;;;;;6246156;22;20080;-82
2024/01/28 02:17:44;;;;;;;28.80;11.98;;;;;;;;;;6246950;22;20016;-82
2024/01/28 02:20:11;;;;;;;33.47;13.07;;;;;;;;;;6246749;22;20015;-82
2024/01/28 02:22:38;;;;;;;32.58;13.95;;;;;;;;;;6247019;22;20091;-81
2024/01/28 02:25:06;;;;;;;24.95;12.80;;;;;;;;;;6246295;22;20019;-80
2024/01/28 02:27:35;;;;;;;33.63;12.63;;;;;;;;;;6270645;22;20020;-81
2024/01/28 02:30:02;;;;;;;;;;;;;;;;;;6247489;22;20019;-81
2024/01/28 02:32:29;;;;;;;29.95;13.02;;;;;;;;;;6246204;22;19915;-81
2024/01/28 02:34:57;;;;;;;34.42;14.73;;;;;;;;;;6246967;22;20040;-82
2024/01/28 02:37:24;;;;;;;23.42;12.60;;;;;;;;;;6246362;22;20032;-82
2024/01/28 02:39:51;;;;;;;35.47;13.95;;;;;;;;;;6246709;22;20015;-81
2024/01/28 02:42:18;;;;;;;32.63;13.82;;;;;;;;;;6246024;22;20074;-82
2024/01/28 02:44:45;;;;;;;31.85;14.73;;;;;;;;;;6245589;23;20090;-81
2024/01/28 02:47:12;;;;;;;33.33;13.85;;;;;;;;;;6244528;22;20091;-81
2024/01/28 02:49:40;;;;;;;30.10;13.93;;;;;;;;;;6244940;23;20024;-82
2024/01/28 02:52:06;;;;;;;43.75;14.88;;;;;;;;;;6245947;22;20016;-81
2024/01/28 02:54:33;;;;;;;39.75;16.35;;;;;;;;;;6246651;22;20063;-81
2024/01/28 02:57:00;;;;;;;40.58;16.63;;;;;;;;;;6246766;22;20425;-82
2024/01/28 02:59:26;;;;;;;36.95;14.73;;;;;;;;;;6245825;22;20016;-81
2024/01/28 03:01:53;;;;;;;34.33;15.80;;;;;;;;;;6246492;22;20445;-81
2024/01/28 03:04:20;;;;;;;37.88;15.65;;;;;;;;;;6244021;22;20676;-81
2024/01/28 03:06:47;;;;;;;40.42;16.55;;;;;;;;;;6246864;22;20019;-81
2024/01/28 03:09:14;;;;;;;36.42;17.55;;;;;;;;;;6244122;22;20512;-81
2024/01/28 03:11:40;;;;;;;42.83;15.27;;;;;;;;;;6246581;22;20032;-81
2024/01/28 03:14:07;;;;;;;34.92;16.15;;;;;;;;;;6245962;22;20016;-82
2024/01/28 03:16:34;;;;;;;33.97;17.30;;;;;;;;;;6246230;22;20110;-81
2024/01/28 03:19:00;;;;;;;45.83;16.77;;;;;;;;;;6244718;23;20074;-81
2024/01/28 03:21:28;;;;;;;35.92;16.17;;;;;;;;;;6245737;22;20023;-82
2024/01/28 03:23:55;;;;;;;35.00;14.98;;;;;;;;;;6246311;22;20071;-82
2024/01/28 03:26:22;;;;;;;46.08;15.35;;;;;;;;;;6245749;22;20031;-82
2024/01/28 03:28:49;;;;;;;36.72;15.70;;;;;;;;;;6246197;22;20020;-82
2024/01/28 03:31:18;;;;;;;36.45;15.35;;;;;;;;;;6269964;22;20062;-81
2024/01/28 03:33:44;;;;;;;43.88;16.50;;;;;;;;;;6246375;22;20062;-82
2024/01/28 03:36:11;;;;;;;46.67;17.63;;;;;;;;;;6245768;22;20050;-82
2024/01/28 03:38:39;;;;;;;39.60;17.05;;;;;;;;;;6246482;22;20310;-82
2024/01/28 03:41:06;;;;;;;45.20;18.20;;;;;;;;;;6245644;22;20209;-80
2024/01/28 03:43:32;;;;;;;47.42;17.48;;;;;;;;;;6244798;23;20023;-81
2024/01/28 03:45:59;;;;;;;40.20;17.23;;;;;;;;;;6219386;23;20446;-81
2024/01/28 03:48:26;;;;;;;51.08;18.42;;;;;;;;;;6245658;22;20881;-82
2024/01/28 03:50:53;;;;;;;51.65;19.90;;;;;;;;;;6246190;22;20364;-81
2024/01/28 03:53:20;;;;;;;58.90;19.75;;;;;;;;;;6245711;22;20373;-81
2024/01/28 03:55:47;;;;;;;63.90;20.13;;;;;;;;;;6269713;22;20437;-82
2024/01/28 03:58:13;;;;;;;67.05;21.23;;;;;;;;;;6245374;22;20023;-82
2024/01/28 04:00:40;;;;;;;66.28;21.02;;;;;;;;;;6246040;22;20393;-81
2024/01/28 04:03:08;;;;;;;75.32;21.30;;;;;;;;;;6245152;22;20009;-82
2024/01/28 04:05:35;;;;;;;110.15;22.75;;;;;;;;;;6219726;23;20032;-81
2024/01/28 04:08:02;;;;;;;166.10;23.85;;;;;;;;;;6246040;22;20091;-81
2024/01/28 04:10:28;;;;;;;115.43;23.88;;;;;;;;;;6269477;22;20094;-82
2024/01/28 04:12:55;;;;;;;248.52;25.90;;;;;;;;;;6245887;22;20012;-82
2024/01/28 04:15:22;;;;;;;287.00;27.85;;;;;;;;;;6243610;22;20020;-81
2024/01/28 04:17:49;;;;;;;240.07;26.10;;;;;;;;;;6244367;23;20008;-82
2024/01/28 04:20:16;;;;;;;243.15;26.10;;;;;;;;;;6245471;22;20062;-82
2024/01/28 04:22:42;;;;;;;215.68;23.50;;;;;;;;;;6219419;23;20016;-81
2024/01/28 04:25:09;;;;;;;271.52;24.83;;;;;;;;;;6245011;22;20191;-81
2024/01/28 04:27:36;;;;;;;180.40;22.17;;;;;;;;;;6243887;23;20380;-81
2024/01/28 04:30:05;;;;;;;168.27;22.23;;;;;;;;;;6245940;22;20023;-82
2024/01/28 04:32:31;;;;;;;281.30;25.90;;;;;;;;;;6269243;22;20128;-81
2024/01/28 04:34:58;;;;;;;265.08;25.20;;;;;;;;;;6245900;22;20520;-82
2024/01/28 04:37:29;;;;;;;138.05;21.13;;;;;;;;;;6245162;22;20046;-82
2024/01/28 04:39:56;;;;;;;77.25;19.80;;;;;;;;;;6269313;22;20449;-82
2024/01/28 04:42:23;;;;;;;58.25;16.63;;;;;;;;;;6243613;22;20015;-82
2024/01/28 04:44:50;;;;;;;92.85;20.67;;;;;;;;;;6269535;22;20306;-81
2024/01/28 04:47:17;;;;;;;144.05;22.30;;;;;;;;;;6245257;22;20012;-82
2024/01/28 04:49:44;;;;;;;171.70;23.88;;;;;;;;;;6245900;22;20020;-82
2024/01/28 04:52:12;;;;;;;125.25;20.23;;;;;;;;;;6243846;22;20074;-81
2024/01/28 04:54:39;;;;;;;151.18;22.10;;;;;;;;;;6246157;22;20073;-82
2024/01/28 04:57:06;;;;;;;156.80;23.20;;;;;;;;;;6245480;22;20434;-81
2024/01/28 04:59:33;;;;;;;257.50;25.02;;;;;;;;;;6246755;22;20020;-81
2024/01/28 05:02:00;;;;;;;163.07;21.77;;;;;;;;;;6245580;23;20022;-82
2024/01/28 05:04:27;;;;;;;141.57;20.65;;;;;;;;;;6246672;22;20023;-80
2024/01/28 05:06:54;;;;;;;344.83;29.58;;;;;;;;;;6245562;23;20016;-81
2024/01/28 05:09:21;;;;;;;618.42;38.30;;;;;;;;;;6247129;22;20019;-81
2024/01/28 05:11:49;;;;;;;390.70;30.30;;;;;;;;;;6274180;22;20418;-82
2024/01/28 05:14:16;;;;;;;209.27;23.98;;;;;;;;;;6283441;22;20016;-83
2024/01/28 05:16:47;;;;;;;286.05;26.75;;;;;;;;;;6263257;23;20060;-79
2024/01/28 05:19:14;;;;;;;371.25;31.40;;;;;;;;;;6285648;22;20024;-81
2024/01/28 05:21:42;;;;;;;217.68;23.65;;;;;;;;;;6244650;23;20471;-82
2024/01/28 05:24:08;;;;;;;215.38;29.92;;;;;;;;;;6243342;22;20020;-82
2024/01/28 05:26:37;;;;;;;362.40;30.23;;;;;;;;;;6218698;23;20493;-82
2024/01/28 05:29:05;;;;;;;126.28;23.73;;;;;;;;;;6268601;22;20027;-80
2024/01/28 05:31:33;;;;;;;129.35;25.60;;;;;;;;;;6244144;23;20039;-81
2024/01/28 05:34:01;;;;;;;167.63;24.23;;;;;;;;;;6245493;22;20012;-80
2024/01/28 05:36:29;;;;;;;116.43;23.30;;;;;;;;;;6245002;22;20024;-82
2024/01/28 05:38:56;;;;;;;155.25;26.00;;;;;;;;;;6245181;22;20027;-81
2024/01/28 05:41:23;;;;;;;112.97;25.48;;;;;;;;;;6268634;22;20016;-82
2024/01/28 05:43:50;;;;;;;99.97;24.25;;;;;;;;;;6243986;23;20020;-81
2024/01/28 05:46:16;;;;;;;66.25;21.52;;;;;;;;;;6243201;22;20392;-82
2024/01/28 05:48:43;;;;;;;81.50;23.67;;;;;;;;;;6245519;22;20018;-81
2024/01/28 05:51:10;;;;;;;83.07;23.20;;;;;;;;;;6243602;22;20032;-81
2024/01/28 05:53:37;;;;;;;75.25;21.45;;;;;;;;;;6247260;22;20051;-82
2024/01/28 05:56:04;;;;;;;93.22;22.67;;;;;;;;;;6246904;22;20066;-80
2024/01/28 05:58:31;;;;;;;59.15;19.20;;;;;;;;;;6247133;22;20433;-82
2024/01/28 06:01:05;;;;;;;84.18;24.20;;;;;;;;;;6247209;22;20016;-82
2024/01/28 06:03:33;;;;;;;80.15;23.65;;;;;;;;;;6246609;22;20031;-82
2024/01/28 06:06:01;;;;;;;80.38;23.38;;;;;;;;;;6247022;22;20395;-82
2024/01/28 06:08:29;;;;;;;65.80;20.98;;;;;;;;;;6246342;22;20020;-82
2024/01/28 06:10:56;;;;;;;106.07;24.10;;;;;;;;;;6245625;23;20015;-82
2024/01/28 06:13:23;;;;;;;62.28;21.05;;;;;;;;;;6246553;22;20016;-82
2024/01/28 06:15:52;;;;;;;94.05;24.27;;;;;;;;;;6246874;22;20059;-82
2024/01/28 06:18:20;;;;;;;94.53;25.30;;;;;;;;;;6246294;22;20070;-82
2024/01/28 06:20:47;;;;;;;66.03;21.08;;;;;;;;;;6247248;22;20429;-82
2024/01/28 06:23:14;;;;;;;88.32;24.50;;;;;;;;;;6246666;22;20071;-82
2024/01/28 06:25:40;;;;;;;78.95;22.90;;;;;;;;;;6246796;22;20025;-81
2024/01/28 06:28:07;;;;;;;96.85;24.45;;;;;;;;;;6246602;22;20377;-80
2024/01/28 06:30:35;;;;;;;73.50;23.98;;;;;;;;;;6245330;23;20023;-82
2024/01/28 06:33:03;;;;;;;87.88;25.05;;;;;;;;;;6246794;22;20091;-82
2024/01/28 06:35:30;;;;;;;80.15;24.23;;;;;;;;;;6246449;22;20020;-81
2024/01/28 06:37:57;;;;;;;92.22;25.35;;;;;;;;;;6246887;22;20016;-82
2024/01/28 06:40:23;;;;;;;118.80;25.70;;;;;;;;;;6244482;22;20009;-81
2024/01/28 06:42:51;;;;;;;103.43;24.52;;;;;;;;;;6246967;22;20437;-82
2024/01/28 06:45:19;;;;;;;77.07;22.75;;;;;;;;;;6244141;22;20376;-82
2024/01/28 06:47:46;;;;;;;73.90;21.97;;;;;;;;;;6270768;22;20027;-81
2024/01/28 06:50:13;;;;;;;73.10;24.15;;;;;;;;;;6246165;22;20132;-81
2024/01/28 06:52:42;;;;;;;167.88;27.40;;;;;;;;;;6270715;22;20024;-82
2024/01/28 06:55:09;;;;;;;164.57;29.13;;;;;;;;;;6246010;22;20019;-81
2024/01/28 06:57:36;;;;;;;120.70;26.35;;;;;;;;;;6246811;22;20050;-81
2024/01/28 07:00:05;;;;;;;153.63;28.33;;;;;;;;;;6246472;22;20434;-81
2024/01/28 07:02:32;;;;;;;142.27;28.42;;;;;;;;;;6245536;22;20031;-81
2024/01/28 07:04:59;;;;;;;125.95;27.27;;;;;;;;;;6246310;22;20016;-82
2024/01/28 07:07:26;;;;;;;130.23;26.90;;;;;;;;;;6245797;22;20016;-82
2024/01/28 07:09:53;;;;;;;220.70;30.83;;;;;;;;;;6246369;22;20020;-82
2024/01/28 07:12:21;;;;;;;93.15;24.63;;;;;;;;;;6244264;22;20094;-82
2024/01/28 07:14:48;;;;;;;163.13;28.75;;;;;;;;;;6246452;22;20085;-81
2024/01/28 07:17:15;;;;;;;178.90;30.98;;;;;;;;;;6245481;22;20016;-81
2024/01/28 07:19:42;;;;;;;185.52;30.48;;;;;;;;;;6270138;22;20032;-82
2024/01/28 07:22:11;;;;;;;138.30;28.48;;;;;;;;;;6269509;22;20012;-82
2024/01/28 07:24:38;;;;;;;286.05;30.52;;;;;;;;;;6220281;23;20074;-81
2024/01/28 07:27:06;;;;;;;236.75;34.15;;;;;;;;;;6245954;22;20016;-81
2024/01/28 07:29:33;;;;;;;263.77;32.17;;;;;;;;;;6245042;23;20024;-81
2024/01/28 07:32:00;;;;;;;291.40;34.58;;;;;;;;;;6246027;22;20476;-81
2024/01/28 07:34:27;;;;;;;254.15;30.33;;;;;;;;;;6243981;22;20365;-82
2024/01/28 07:36:56;;;;;;;173.30;30.92;;;;;;;;;;6246277;22;20107;-82
2024/01/28 07:39:25;;;;;;;273.15;33.13;;;;;;;;;;6243909;22;20047;-81
2024/01/28 07:41:52;;;;;;;217.55;30.75;;;;;;;;;;6269889;22;20027;-81
2024/01/28 07:44:19;;;;;;;145.73;27.88;;;;;;;;;;6269445;22;20024;-82
2024/01/28 07:46:47;;;;;;;149.63;28.40;;;;;;;;;;6245945;22;20024;-81
2024/01/28 07:49:14;;;;;;;231.32;30.33;;;;;;;;;;6244089;22;20012;-82
2024/01/28 07:51:41;;;;;;;234.05;29.63;;;;;;;;;;6268577;22;20020;-87
2024/01/28 07:54:10;;;;;;;154.05;29.00;;;;;;;;;;6243447;22;20020;-84
2024/01/28 07:56:37;;;;;;;106.68;26.60;;;;;;;;;;6219257;23;20019;-82
2024/01/28 07:59:04;;;;;;;110.68;27.77;;;;;;;;;;6269413;22;20099;-81
2024/01/28 08:01:32;;;;;;;152.43;29.30;;;;;;;;;;6243834;23;20022;-82
2024/01/28 08:03:59;;;;;;;140.40;29.42;;;;;;;;;;6244297;23;20050;-82
2024/01/28 08:06:27;;;;;;;93.53;26.52;;;;;;;;;;6243627;22;20024;-82
2024/01/28 08:08:54;;;;;;;122.43;28.53;;;;;;;;;;6219518;23;20016;-82
2024/01/28 08:11:21;;;;;;;85.43;25.67;;;;;;;;;;6244879;22;20050;-82
2024/01/28 08:13:48;;;;;;;117.25;28.58;;;;;;;;;;6269549;22;20016;-82
2024/01/28 08:16:15;;;;;;;149.52;31.77;;;;;;;;;;6243535;22;20377;-82
2024/01/28 08:18:42;;;;;;;158.65;28.92;;;;;;;;;;6243051;23;20329;-82
2024/01/28 08:21:10;;;;;;;201.68;30.23;;;;;;;;;;6267835;22;20012;-82
2024/01/28 08:23:37;;;;;;;162.05;31.98;;;;;;;;;;6268613;22;20020;-83
2024/01/28 08:26:05;;;;;;;191.75;32.55;;;;;;;;;;6268686;22;20012;-81
2024/01/28 08:28:32;;;;;;;204.23;28.42;;;;;;;;;;6241048;22;20094;-82
2024/01/28 08:30:59;;;;;;;121.88;25.85;;;;;;;;;;6241285;22;20016;-83
2024/01/28 08:33:26;;;;;;;138.27;28.90;;;;;;;;;;6242081;22;20334;-83
2024/01/28 08:35:53;;;;;;;94.63;27.17;;;;;;;;;;6243367;22;20016;-83
2024/01/28 08:38:19;;;;;;;92.82;25.38;;;;;;;;;;6241651;22;20027;-82
2024/01/28 08:40:46;;;;;;;112.97;27.23;;;;;;;;;;6244273;22;20028;-82
2024/01/28 08:43:13;;;;;;;110.22;28.55;;;;;;;;;;6241780;22;20091;-83
2024/01/28 08:45:40;;;;;;;126.43;29.17;;;;;;;;;;6268173;22;20067;-82
2024/01/28 08:48:07;;;;;;;92.85;26.70;;;;;;;;;;6267981;22;20107;-81
2024/01/28 08:50:34;;;;;;;120.13;30.13;;;;;;;;;;6243697;22;20380;-82
2024/01/28 08:53:01;;;;;;;95.85;27.70;;;;;;;;;;6242353;23;20372;-83
2024/01/28 08:55:27;;;;;;;106.13;29.05;;;;;;;;;;6241508;22;20219;-83
2024/01/28 08:57:54;;;;;;;95.10;28.92;;;;;;;;;;6245899;22;20016;-82
2024/01/28 09:00:21;;;;;;;83.93;26.58;;;;;;;;;;6245567;22;20503;-82
2024/01/28 09:02:49;;;;;;;86.30;28.08;;;;;;;;;;6269951;22;20341;-82
2024/01/28 09:05:16;;;;;;;96.80;30.05;;;;;;;;;;6245627;22;20039;-82
2024/01/28 09:07:45;;;;;;;79.53;24.83;;;;;;;;;;6247722;23;20504;-82
2024/01/28 09:10:12;;;;;;;;;;;;;;;;;;6285563;22;20012;-82
2024/01/28 09:12:39;;;;;;;100.07;30.20;;;;;;;;;;6266312;23;19943;-82
2024/01/28 09:15:06;;;;;;;103.78;32.70;;;;;;;;;;6254770;22;20020;-82
2024/01/28 09:17:33;;;;;;;87.78;28.40;;;;;;;;;;6216539;23;20016;-83
2024/01/28 09:19:59;;;;;;;94.00;27.70;;;;;;;;;;6241881;23;20023;-82
2024/01/28 09:22:26;;;;;;;97.82;26.52;;;;;;;;;;6216245;22;20384;-82
2024/01/28 09:24:53;;;;;;;97.90;26.52;;;;;;;;;;6243646;22;20428;-82
2024/01/28 09:27:23;;;;;;;84.15;29.80;;;;;;;;;;6244817;22;20452;-82
2024/01/28 09:29:50;;;;;;;99.22;28.33;;;;;;;;;;6218354;23;20020;-82
2024/01/28 09:32:18;;;;;;;91.50;29.17;;;;;;;;;;6268888;22;20039;-82
2024/01/28 09:34:47;;;;;;;88.18;28.73;;;;;;;;;;6269409;22;20016;-82
2024/01/28 09:37:14;;;;;;;80.25;29.30;;;;;;;;;;6243301;22;20046;-81
2024/01/28 09:39:40;;;;;;;68.47;27.35;;;;;;;;;;6245895;22;20098;-82
2024/01/28 09:42:33;;;;;;;83.85;28.52;;;;;;;;;;6245127;22;20091;-82
2024/01/28 09:45:00;;;;;;;70.82;27.17;;;;;;;;;;6245158;22;20445;-82
2024/01/28 09:47:27;;;;;;;74.00;26.13;;;;;;;;;;6243631;22;20020;-82
2024/01/28 09:49:56;;;;;;;84.38;27.80;;;;;;;;;;6245747;22;20024;-82
2024/01/28 09:52:22;;;;;;;;;;;;;;;;;;6243947;22;20020;-82
2024/01/28 09:54:49;;;;;;;78.35;27.10;;;;;;;;;;6243543;23;19922;-82
2024/01/28 09:57:16;;;;;;;82.90;26.63;;;;;;;;;;6244622;22;20437;-82
2024/01/28 09:59:43;;;;;;;81.30;25.83;;;;;;;;;;6243704;23;20020;-82
2024/01/28 10:02:12;;;;;;;65.15;25.55;;;;;;;;;;6243273;22;20019;-82
2024/01/28 10:04:40;;;;;;;75.53;26.38;;;;;;;;;;6243787;23;20020;-82
2024/01/28 10:07:09;;;;;;;64.20;25.13;;;;;;;;;;6217793;22;20332;-82
2024/01/28 10:09:36;;;;;;;75.60;25.77;;;;;;;;;;6244756;22;20333;-83
2024/01/28 10:12:04;;;;;;;63.70;24.33;;;;;;;;;;6242449;22;20079;-81
2024/01/28 10:14:31;;;;;;;73.75;24.88;;;;;;;;;;6192631;23;20378;-81
2024/01/28 10:16:57;;;;;;;74.32;23.75;;;;;;;;;;6242671;23;20012;-82
2024/01/28 10:19:24;;;;;;;67.85;24.52;;;;;;;;;;6268549;22;20032;-81
2024/01/28 10:21:52;;;;;;;64.47;23.00;;;;;;;;;;6246309;22;20023;-82
2024/01/28 10:24:19;;;;;;;67.70;23.45;;;;;;;;;;6245018;22;20051;-82
2024/01/28 10:26:46;;;;;;;65.68;24.30;;;;;;;;;;6243350;23;20017;-81
2024/01/28 10:29:13;;;;;;;70.95;23.05;;;;;;;;;;6267760;22;20047;-81
2024/01/28 10:31:40;;;;;;;68.30;23.95;;;;;;;;;;6244990;22;20433;-82
2024/01/28 10:34:09;;;;;;;58.58;22.60;;;;;;;;;;6217466;22;20381;-81
2024/01/28 10:36:39;;;;;;;60.90;26.42;;;;;;;;;;6244862;22;20078;-82
2024/01/28 10:39:12;;;;;;;77.75;24.58;;;;;;;;;;6217694;22;20016;-83
2024/01/28 10:41:43;;;;;;;71.47;24.85;;;;;;;;;;6218301;23;20023;-81
2024/01/28 10:44:12;;;;;;;67.13;22.95;;;;;;;;;;6242635;22;20039;-81
2024/01/28 10:46:41;;;;;;;54.60;20.80;;;;;;;;;;6242895;23;20039;-82
2024/01/28 10:49:10;;;;;;;56.38;20.20;;;;;;;;;;6244337;22;20723;-80
2024/01/28 10:51:39;;;;;;;48.58;18.95;;;;;;;;;;6244549;22;20024;-80
2024/01/28 10:54:07;;;;;;;50.22;19.60;;;;;;;;;;6242568;22;20058;-80
2024/01/28 10:56:38;;;;;;;56.33;19.75;;;;;;;;;;6244000;22;20024;-80
2024/01/28 10:59:05;;;;;;;52.88;19.98;;;;;;;;;;6244253;22;20066;-79
2024/01/28 11:01:34;;;;;;;59.05;18.90;;;;;;;;;;6243030;23;20023;-80
2024/01/28 11:04:03;;;;;;;40.97;17.48;;;;;;;;;;6244897;22;20039;-79
2024/01/28 11:06:30;;;;;;;42.60;16.13;;;;;;;;;;6243352;22;20020;-80
2024/01/28 11:08:58;;;;;;;39.92;16.90;;;;;;;;;;6244400;22;20030;-80
2024/01/28 11:11:26;;;;;;;49.00;17.13;;;;;;;;;;6267484;22;20310;-80
2024/01/28 11:13:55;;;;;;;43.03;17.27;;;;;;;;;;6244733;22;20020;-80
2024/01/28 11:16:22;;;;;;;44.03;16.52;;;;;;;;;;6243441;22;20054;-80
2024/01/28 11:19:04;;;;;;;31.92;15.13;;;;;;;;;;6244294;22;20023;-80
2024/01/28 11:21:33;;;;;;;40.33;15.95;;;;;;;;;;6243896;22;20039;-79
2024/01/28 11:24:06;;;;;;;38.75;15.35;;;;;;;;;;6268228;22;20070;-80
2024/01/28 11:26:37;;;;;;;43.65;15.48;;;;;;;;;;6267457;22;20020;-80
2024/01/28 11:29:10;;;;;;;39.97;15.18;;;;;;;;;;6243776;22;20024;-79
2024/01/28 11:31:41;;;;;;;48.83;16.40;;;;;;;;;;6244178;22;20040;-81
2024/01/28 11:34:20;;;;;;;40.10;15.65;;;;;;;;;;6241384;22;20016;-80
2024/01/28 11:36:53;;;;;;;42.90;16.08;;;;;;;;;;6242357;22;20043;-80
2024/01/28 11:39:45;;;;;;;28.50;14.27;;;;;;;;;;6244040;22;20318;-81
2024/01/28 11:42:13;;;;;;;37.78;16.73;;;;;;;;;;6244060;22;20020;-79
2024/01/28 11:44:43;;;;;;;44.15;15.63;;;;;;;;;;6244122;22;20369;-81
2024/01/28 11:47:16;;;;;;;33.08;12.63;;;;;;;;;;6265405;22;20020;-80
2024/01/28 11:49:44;;;;;;;32.83;14.23;;;;;;;;;;6242948;22;20372;-78
2024/01/28 11:52:11;;;;;;;35.33;13.23;;;;;;;;;;6242269;22;20012;-79
2024/01/28 11:54:38;;;;;;;27.85;12.30;;;;;;;;;;6242974;22;20074;-80
2024/01/28 11:57:06;;;;;;;39.00;14.02;;;;;;;;;;6242279;22;20016;-78
2024/01/28 11:59:33;;;;;;;31.33;11.65;;;;;;;;;;6243160;22;20410;-79
2024/01/28 12:02:04;;;;;;;39.38;12.40;;;;;;;;;;6242847;22;20452;-80
2024/01/28 12:04:31;;;;;;;25.67;10.18;;;;;;;;;;6242100;22;20295;-79
2024/01/28 12:06:59;;;;;;;35.83;10.40;;;;;;;;;;6242807;22;20489;-80
2024/01/28 12:09:29;;;;;;;29.60;10.52;;;;;;;;;;6240139;22;20028;-79
2024/01/28 12:11:56;;;;;;;27.10;11.68;;;;;;;;;;6241111;23;20016;-80
2024/01/28 12:14:23;;;;;;;30.08;11.52;;;;;;;;;;6242316;22;20030;-80
2024/01/28 12:16:50;;;;;;;24.13;10.43;;;;;;;;;;6242657;22;20046;-79
2024/01/28 12:19:18;;;;;;;25.63;9.57;;;;;;;;;;6242072;22;20050;-80
2024/01/28 12:21:46;;;;;;;25.50;10.73;;;;;;;;;;6242412;22;20015;-79
2024/01/28 12:24:13;;;;;;;;;;;;;;;;;;6241909;22;20036;-79
2024/01/28 12:26:43;;;;;;;28.48;9.20;;;;;;;;;;6240280;22;20002;-79
2024/01/28 12:29:11;;;;;;;24.75;10.13;;;;;;;;;;6264080;22;20536;-79
2024/01/28 12:31:38;;;;;;;24.20;9.85;;;;;;;;;;6241331;23;20367;-80
2024/01/28 12:34:13;;;;;;;26.33;10.02;;;;;;;;;;6242313;22;20016;-78
2024/01/28 12:36:40;;;;;;;27.90;10.75;;;;;;;;;;6242700;22;20020;-79
2024/01/28 12:39:07;;;;;;;22.17;9.77;;;;;;;;;;6242203;22;20091;-79
2024/01/28 12:41:33;;;;;;;22.58;9.25;;;;;;;;;;6242970;22;20090;-80
2024/01/28 12:44:01;;;;;;;25.83;9.85;;;;;;;;;;6242786;22;20019;-80
2024/01/28 12:46:28;;;;;;;25.53;9.67;;;;;;;;;;6190004;22;1217821;-80
2024/01/28 12:48:55;;;;;;;29.73;9.18;;;;;;;;;;6244050;22;20020;-82
2024/01/28 12:51:22;;;;;;;34.75;10.57;;;;;;;;;;6243468;22;20012;-77
2024/01/28 12:53:51;;;;;;;19.00;9.52;;;;;;;;;;6243023;22;20441;-80
2024/01/28 12:56:19;;;;;;;19.48;9.55;;;;;;;;;;6242311;22;20004;-80
2024/01/28 12:58:46;;;;;;;17.55;8.70;;;;;;;;;;6244206;22;20043;-79
2024/01/28 13:01:13;;;;;;;17.58;8.75;;;;;;;;;;6241817;22;20074;-81
2024/01/28 13:03:40;;;;;;;19.92;9.15;;;;;;;;;;6244074;22;20016;-79
2024/01/28 13:06:07;;;;;;;22.25;10.07;;;;;;;;;;6242735;22;20020;-79
2024/01/28 13:08:35;;;;;;;22.55;10.73;;;;;;;;;;6243978;22;20012;-79
2024/01/28 13:11:04;;;;;;;29.17;10.85;;;;;;;;;;6243531;22;20321;-80
2024/01/28 13:13:33;;;;;;;26.35;10.02;;;;;;;;;;6243357;22;20020;-78
2024/01/28 13:16:01;;;;;;;22.10;8.85;;;;;;;;;;6243870;22;20020;-85
2024/01/28 13:18:28;;;;;;;23.65;9.48;;;;;;;;;;6240948;23;20035;-79
2024/01/28 13:21:01;;;;;;;19.98;9.35;;;;;;;;;;6243922;22;20023;-79
2024/01/28 13:23:28;;;;;;;24.35;9.13;;;;;;;;;;6243429;22;20028;-80
2024/01/28 13:25:55;;;;;;;16.00;8.57;;;;;;;;;;6243529;22;20016;-80
2024/01/28 13:28:22;;;;;;;20.40;8.82;;;;;;;;;;6242166;22;20019;-80
2024/01/28 13:30:48;;;;;;;21.58;9.55;;;;;;;;;;6243429;22;20055;-80
2024/01/28 13:33:16;;;;;;;28.08;8.93;;;;;;;;;;6242891;22;20072;-80
2024/01/28 13:35:43;;;;;;;24.75;9.18;;;;;;;;;;6243805;22;20012;-79
2024/01/28 13:38:09;;;;;;;17.20;9.18;;;;;;;;;;6243175;22;20019;-80
2024/01/28 13:40:36;;;;;;;22.65;9.02;;;;;;;;;;6243013;22;20016;-79
2024/01/28 13:43:03;;;;;;;28.30;9.30;;;;;;;;;;6243570;22;20440;-80
2024/01/28 13:45:30;;;;;;;31.38;8.80;;;;;;;;;;6242836;22;20020;-80
2024/01/28 13:47:56;;;;;;;26.95;9.20;;;;;;;;;;6243995;22;20039;-80
2024/01/28 13:50:23;;;;;;;22.95;8.75;;;;;;;;;;6266725;22;20008;-80
2024/01/28 13:52:50;;;;;;;19.58;8.40;;;;;;;;;;6243636;22;20020;-80
2024/01/28 13:55:17;;;;;;;19.35;8.52;;;;;;;;;;6242924;22;20074;-80
2024/01/28 13:57:44;;;;;;;20.25;9.07;;;;;;;;;;6243419;22;20022;-79
2024/01/28 14:00:11;;;;;;;20.15;9.55;;;;;;;;;;6242640;22;20024;-80
2024/01/28 14:02:40;;;;;;;20.60;9.70;;;;;;;;;;6241663;23;20028;-80
2024/01/28 14:05:10;;;;;;;19.00;8.60;;;;;;;;;;6242119;22;20431;-80
2024/01/28 14:07:37;;;;;;;23.75;9.52;;;;;;;;;;6243591;22;20012;-80
2024/01/28 14:10:04;;;;;;;24.63;9.43;;;;;;;;;;6243954;22;20012;-79
2024/01/28 14:12:31;;;;;;;26.63;8.90;;;;;;;;;;6244394;22;20026;-79
2024/01/28 14:14:58;;;;;;;31.35;9.32;;;;;;;;;;6245085;22;20016;-80
2024/01/28 14:17:25;;;;;;;28.48;10.48;;;;;;;;;;6241323;22;20020;-80